sensor_id;sensor_type;location;lat;lon;timestamp;temperature;humidity
12374;DHT22;6251;51.762;8.660;2023-05-07T01:02:20;13.80;99.90
12374;DHT22;6251;51.762;8.660;2023-05-07T01:12:21;13.80;99.90
12374;DHT22;6251;51.762;8.660;2023-05-07T02:54:15;13.10;99.90
12374;DHT22;6251;51.762;8.660;2023-05-07T04:05:18;12.70;99.90
12374;DHT22;6251;51.762;8.660;2023-05-07T04:15:18;12.70;99.90
12374;DHT22;6251;51.762;8.660;2023-05-07T04:25:19;12.70;99.90
12374;DHT22;6251;51.762;8.660;2023-05-07T04:35:19;12.70;99.90
12374;DHT22;6251;51.762;8.660;2023-05-07T04:45:20;12.60;99.90
12374;DHT22;6251;51.762;8.660;2023-05-07T04:55:21;12.70;99.90
12374;DHT22;6251;51.762;8.660;2023-05-07T05:05:21;12.70;99.90
12374;DHT22;6251;51.762;8.660;2023-05-07T05:15:22;12.80;99.90
12374;DHT22;6251;51.762;8.660;2023-05-07T05:25:22;12.80;99.90
12374;DHT22;6251;51.762;8.660;2023-05-07T05:35:23;12.90;99.90
12374;DHT22;6251;51.762;8.660;2023-05-07T05:45:24;13.00;99.90
12374;DHT22;6251;51.762;8.660;2023-05-07T05:55:24;13.20;99.90
12374;DHT22;6251;51.762;8.660;2023-05-07T06:05:25;13.30;99.90
12374;DHT22;6251;51.762;8.660;2023-05-07T06:15:26;13.50;99.90
12374;DHT22;6251;51.762;8.660;2023-05-07T06:25:26;13.70;99.90
12374;DHT22;6251;51.762;8.660;2023-05-07T06:35:27;13.80;99.90
12374;DHT22;6251;51.762;8.660;2023-05-07T06:45:27;13.90;99.90
12374;DHT22;6251;51.762;8.660;2023-05-07T06:55:28;14.00;99.90
12374;DHT22;6251;51.762;8.660;2023-05-07T07:05:28;14.10;99.90
12374;DHT22;6251;51.762;8.660;2023-05-07T07:15:29;14.10;99.90
12374;DHT22;6251;51.762;8.660;2023-05-07T07:25:30;14.10;99.90
12374;DHT22;6251;51.762;8.660;2023-05-07T07:35:34;14.10;99.90
12374;DHT22;6251;51.762;8.660;2023-05-07T07:45:34;14.30;99.90
12374;DHT22;6251;51.762;8.660;2023-05-07T07:55:41;14.60;99.90
12374;DHT22;6251;51.762;8.660;2023-05-07T08:05:42;14.80;99.90
12374;DHT22;6251;51.762;8.660;2023-05-07T08:15:43;14.90;99.90
12374;DHT22;6251;51.762;8.660;2023-05-07T08:25:43;15.00;99.90
12374;DHT22;6251;51.762;8.660;2023-05-07T08:35:44;15.30;99.90
12374;DHT22;6251;51.762;8.660;2023-05-07T08:45:45;15.70;99.90
12374;DHT22;6251;51.762;8.660;2023-05-07T08:55:47;15.80;99.90
12374;DHT22;6251;51.762;8.660;2023-05-07T09:05:48;16.10;99.90
12374;DHT22;6251;51.762;8.660;2023-05-07T09:15:48;16.50;99.90
12374;DHT22;6251;51.762;8.660;2023-05-07T09:25:49;16.60;99.90
12374;DHT22;6251;51.762;8.660;2023-05-07T09:35:53;16.70;99.90
12374;DHT22;6251;51.762;8.660;2023-05-07T09:45:54;17.00;99.90
12374;DHT22;6251;51.762;8.660;2023-05-07T09:55:56;17.40;99.90
12374;DHT22;6251;51.762;8.660;2023-05-07T10:05:58;17.90;99.90
12374;DHT22;6251;51.762;8.660;2023-05-07T10:15:59;18.10;99.90
12374;DHT22;6251;51.762;8.660;2023-05-07T10:26:06;18.30;99.90
12374;DHT22;6251;51.762;8.660;2023-05-07T10:36:08;18.50;99.90
12374;DHT22;6251;51.762;8.660;2023-05-07T10:46:17;18.70;99.90
12374;DHT22;6251;51.762;8.660;2023-05-07T11:06:18;18.70;99.90
12374;DHT22;6251;51.762;8.660;2023-05-07T11:16:21;18.60;99.90
12374;DHT22;6251;51.762;8.660;2023-05-07T11:26:23;18.70;99.90
12374;DHT22;6251;51.762;8.660;2023-05-07T11:36:24;18.80;99.90
12374;DHT22;6251;51.762;8.660;2023-05-07T11:46:26;18.80;99.90
12374;DHT22;6251;51.762;8.660;2023-05-07T11:56:27;18.80;99.90
12374;DHT22;6251;51.762;8.660;2023-05-07T12:06:28;18.90;99.90
12374;DHT22;6251;51.762;8.660;2023-05-07T12:16:28;19.20;99.90
12374;DHT22;6251;51.762;8.660;2023-05-07T12:26:30;19.60;99.90
12374;DHT22;6251;51.762;8.660;2023-05-07T12:36:38;19.90;99.90
12374;DHT22;6251;51.762;8.660;2023-05-07T12:46:39;20.20;99.90
12374;DHT22;6251;51.762;8.660;2023-05-07T12:56:40;20.40;99.90
12374;DHT22;6251;51.762;8.660;2023-05-07T13:06:40;20.70;99.90
12374;DHT22;6251;51.762;8.660;2023-05-07T13:16:41;20.70;99.90
12374;DHT22;6251;51.762;8.660;2023-05-07T13:26:41;20.80;99.90
12374;DHT22;6251;51.762;8.660;2023-05-07T13:36:42;20.90;99.90
12374;DHT22;6251;51.762;8.660;2023-05-07T13:46:43;20.80;99.90
12374;DHT22;6251;51.762;8.660;2023-05-07T13:56:43;20.90;99.90
12374;DHT22;6251;51.762;8.660;2023-05-07T14:06:44;20.90;99.90
12374;DHT22;6251;51.762;8.660;2023-05-07T14:16:45;21.00;99.90
12374;DHT22;6251;51.762;8.660;2023-05-07T14:26:46;21.00;99.90
12374;DHT22;6251;51.762;8.660;2023-05-07T14:36:46;21.00;99.90
12374;DHT22;6251;51.762;8.660;2023-05-07T14:46:47;21.00;99.90
12374;DHT22;6251;51.762;8.660;2023-05-07T14:56:48;21.20;99.90
12374;DHT22;6251;51.762;8.660;2023-05-07T15:06:49;21.30;99.90
12374;DHT22;6251;51.762;8.660;2023-05-07T15:16:49;21.40;99.90
12374;DHT22;6251;51.762;8.660;2023-05-07T15:26:52;21.30;99.90
12374;DHT22;6251;51.762;8.660;2023-05-07T15:36:53;21.10;99.90
12374;DHT22;6251;51.762;8.660;2023-05-07T15:46:53;21.10;99.90
12374;DHT22;6251;51.762;8.660;2023-05-07T15:56:54;21.20;99.90
12374;DHT22;6251;51.762;8.660;2023-05-07T16:06:55;21.60;98.70
12374;DHT22;6251;51.762;8.660;2023-05-07T16:16:56;21.60;99.20
12374;DHT22;6251;51.762;8.660;2023-05-07T16:26:56;21.60;98.80
12374;DHT22;6251;51.762;8.660;2023-05-07T16:36:57;21.50;98.50
12374;DHT22;6251;51.762;8.660;2023-05-07T16:46:58;21.10;99.50
12374;DHT22;6251;51.762;8.660;2023-05-07T16:56:58;20.50;99.60
12374;DHT22;6251;51.762;8.660;2023-05-07T17:06:59;20.10;99.80
12374;DHT22;6251;51.762;8.660;2023-05-07T17:16:59;19.50;99.90
12374;DHT22;6251;51.762;8.660;2023-05-07T17:27:00;19.10;99.90
12374;DHT22;6251;51.762;8.660;2023-05-07T17:37:01;18.60;99.90
12374;DHT22;6251;51.762;8.660;2023-05-07T17:47:02;18.10;99.90
12374;DHT22;6251;51.762;8.660;2023-05-07T17:57:03;17.50;99.90
12374;DHT22;6251;51.762;8.660;2023-05-07T18:07:03;17.00;99.90
12374;DHT22;6251;51.762;8.660;2023-05-07T18:17:04;16.60;99.90
12374;DHT22;6251;51.762;8.660;2023-05-07T18:27:05;16.20;99.90
12374;DHT22;6251;51.762;8.660;2023-05-07T18:37:05;15.80;99.90
12374;DHT22;6251;51.762;8.660;2023-05-07T18:47:06;15.50;99.90
12374;DHT22;6251;51.762;8.660;2023-05-07T18:57:07;15.20;99.90
12374;DHT22;6251;51.762;8.660;2023-05-07T19:07:08;14.90;99.90
12374;DHT22;6251;51.762;8.660;2023-05-07T19:17:08;14.60;99.90
12374;DHT22;6251;51.762;8.660;2023-05-07T19:27:09;14.40;99.90
12374;DHT22;6251;51.762;8.660;2023-05-07T19:37:10;14.20;99.90
12374;DHT22;6251;51.762;8.660;2023-05-07T19:47:11;14.00;99.90
12374;DHT22;6251;51.762;8.660;2023-05-07T19:57:11;13.80;99.90
12374;DHT22;6251;51.762;8.660;2023-05-07T20:07:12;13.60;99.90
12374;DHT22;6251;51.762;8.660;2023-05-07T20:17:13;13.50;99.90
12374;DHT22;6251;51.762;8.660;2023-05-07T20:27:13;13.40;99.90
12374;DHT22;6251;51.762;8.660;2023-05-07T20:37:15;13.20;99.90
12374;DHT22;6251;51.762;8.660;2023-05-07T20:47:16;13.00;99.90
12374;DHT22;6251;51.762;8.660;2023-05-07T20:57:16;12.80;99.90
12374;DHT22;6251;51.762;8.660;2023-05-07T23:09:23;11.30;99.90
